createdAt,value
2022-12-11T00:00:09.304Z,942.38
2022-12-11T00:00:19.297Z,942.38
2022-12-11T00:00:29.294Z,942.38
2022-12-11T00:00:39.300Z,942.38
2022-12-11T00:00:49.307Z,942.38
2022-12-11T00:00:59.301Z,942.38
2022-12-11T00:01:09.307Z,942.38
2022-12-11T00:01:19.298Z,942.37
2022-12-11T00:01:29.304Z,942.37
2022-12-11T00:01:39.326Z,942.38
2022-12-11T00:01:49.387Z,942.38
2022-12-11T00:01:59.360Z,942.38
2022-12-11T00:02:09.330Z,942.37
2022-12-11T00:02:19.334Z,942.38
2022-12-11T00:02:29.392Z,942.38
2022-12-11T00:02:39.356Z,942.38
2022-12-11T00:02:49.366Z,942.38
2022-12-11T00:02:59.344Z,942.39
2022-12-11T00:03:15.374Z,942.39
2022-12-11T00:03:20.348Z,942.40
2022-12-11T00:03:29.344Z,942.40
2022-12-11T00:03:39.366Z,942.40
2022-12-11T00:03:49.312Z,942.40
2022-12-11T00:03:59.306Z,942.41
2022-12-11T00:04:09.309Z,942.41
2022-12-11T00:04:19.318Z,942.41
2022-12-11T00:04:29.313Z,942.42
2022-12-11T00:04:39.312Z,942.42
2022-12-11T00:04:49.317Z,942.43
2022-12-11T00:04:59.317Z,942.43
2022-12-11T00:05:09.614Z,942.43
2022-12-11T00:05:19.321Z,942.43
2022-12-11T00:05:29.313Z,942.43
2022-12-11T00:05:39.316Z,942.43
2022-12-11T00:05:49.318Z,942.43
2022-12-11T00:05:59.317Z,942.43
2022-12-11T00:06:09.316Z,942.43
2022-12-11T00:06:19.317Z,942.43
2022-12-11T00:06:29.321Z,942.43
2022-12-11T00:06:39.326Z,942.43
2022-12-11T00:06:49.328Z,942.43
2022-12-11T00:06:59.321Z,942.43
2022-12-11T00:07:09.320Z,942.43
2022-12-11T00:07:19.324Z,942.43
2022-12-11T00:07:29.353Z,942.43
2022-12-11T00:07:39.326Z,942.43
2022-12-11T00:07:49.369Z,942.42
2022-12-11T00:07:59.381Z,942.42
2022-12-11T00:08:09.367Z,942.42
2022-12-11T00:08:19.380Z,942.42
2022-12-11T00:08:29.332Z,942.42
2022-12-11T00:08:39.331Z,942.42
2022-12-11T00:08:49.337Z,942.42
2022-12-11T00:08:59.339Z,942.41
2022-12-11T00:09:09.331Z,942.41
2022-12-11T00:09:19.331Z,942.41
2022-12-11T00:09:29.336Z,942.41
2022-12-11T00:09:39.332Z,942.41
2022-12-11T00:09:49.336Z,942.41
2022-12-11T00:09:59.340Z,942.41
2022-12-11T00:10:09.336Z,942.41
2022-12-11T00:10:19.348Z,942.41
2022-12-11T00:10:32.105Z,942.41
2022-12-11T00:10:40.345Z,942.42
2022-12-11T00:10:49.343Z,942.42
2022-12-11T00:10:59.340Z,942.42
2022-12-11T00:11:09.340Z,942.42
2022-12-11T00:11:19.357Z,942.42
2022-12-11T00:11:29.341Z,942.42
2022-12-11T00:11:39.346Z,942.42
2022-12-11T00:11:49.341Z,942.42
2022-12-11T00:11:59.339Z,942.43
2022-12-11T00:12:09.369Z,942.43
2022-12-11T00:12:19.340Z,942.43
2022-12-11T00:12:29.340Z,942.43
2022-12-11T00:12:39.346Z,942.43
2022-12-11T00:12:49.345Z,942.43
2022-12-11T00:12:59.343Z,942.43
2022-12-11T00:13:09.350Z,942.43
2022-12-11T00:13:19.352Z,942.42
2022-12-11T00:13:29.347Z,942.43
2022-12-11T00:13:39.349Z,942.42
2022-12-11T00:13:49.353Z,942.42
2022-12-11T00:13:59.346Z,942.41
2022-12-11T00:14:09.352Z,942.42
2022-12-11T00:14:19.353Z,942.41
2022-12-11T00:14:29.353Z,942.41
2022-12-11T00:14:39.354Z,942.41
2022-12-11T00:14:49.359Z,942.41
2022-12-11T00:14:59.426Z,942.41
2022-12-11T00:15:09.714Z,942.41
2022-12-11T00:15:19.358Z,942.41
2022-12-11T00:15:29.357Z,942.41
2022-12-11T00:15:39.357Z,942.41
2022-12-11T00:15:49.357Z,942.40
2022-12-11T00:15:59.359Z,942.41
2022-12-11T00:16:09.444Z,942.40
2022-12-11T00:16:23.771Z,942.40
2022-12-11T00:16:30.405Z,942.40
2022-12-11T00:16:39.398Z,942.40
2022-12-11T00:16:49.383Z,942.41
2022-12-11T00:16:59.426Z,942.41
2022-12-11T00:17:09.434Z,942.41
2022-12-11T00:17:19.363Z,942.40
2022-12-11T00:17:29.358Z,942.40
2022-12-11T00:17:39.364Z,942.40
2022-12-11T00:17:49.362Z,942.41
2022-12-11T00:17:59.361Z,942.40
2022-12-11T00:18:09.363Z,942.40
2022-12-11T00:18:19.360Z,942.40
2022-12-11T00:18:29.361Z,942.40
2022-12-11T00:18:39.371Z,942.41
2022-12-11T00:18:49.370Z,942.40
2022-12-11T00:18:59.364Z,942.40
2022-12-11T00:19:09.374Z,942.40
2022-12-11T00:19:19.368Z,942.40
2022-12-11T00:19:29.370Z,942.40
2022-12-11T00:19:39.372Z,942.39
2022-12-11T00:19:49.366Z,942.40
2022-12-11T00:19:59.367Z,942.39
2022-12-11T00:20:09.374Z,942.39
2022-12-11T00:20:19.374Z,942.39
2022-12-11T00:20:29.373Z,942.39
2022-12-11T00:20:39.371Z,942.39
2022-12-11T00:20:49.373Z,942.38
2022-12-11T00:20:59.377Z,942.38
2022-12-11T00:21:09.372Z,942.38
2022-12-11T00:21:19.375Z,942.38
2022-12-11T00:21:29.385Z,942.37
2022-12-11T00:21:39.376Z,942.37
2022-12-11T00:21:49.381Z,942.37
2022-12-11T00:21:59.382Z,942.36
2022-12-11T00:22:09.381Z,942.36
2022-12-11T00:22:19.378Z,942.36
2022-12-11T00:22:29.381Z,942.35
2022-12-11T00:22:39.431Z,942.36
2022-12-11T00:22:49.380Z,942.35
2022-12-11T00:22:59.385Z,942.35
2022-12-11T00:23:09.383Z,942.35
2022-12-11T00:23:19.384Z,942.34
2022-12-11T00:23:29.382Z,942.34
2022-12-11T00:23:39.390Z,942.34
2022-12-11T00:23:49.392Z,942.34
2022-12-11T00:23:59.392Z,942.34
2022-12-11T00:24:09.396Z,942.34
2022-12-11T00:24:19.387Z,942.33
2022-12-11T00:24:29.397Z,942.33
2022-12-11T00:24:39.395Z,942.33
2022-12-11T00:24:49.393Z,942.32
2022-12-11T00:24:59.395Z,942.32
2022-12-11T00:25:09.826Z,942.31
2022-12-11T00:25:19.394Z,942.32
2022-12-11T00:25:29.393Z,942.32
2022-12-11T00:25:39.396Z,942.31
2022-12-11T00:25:49.391Z,942.31
2022-12-11T00:25:59.395Z,942.31
2022-12-11T00:26:09.402Z,942.31
2022-12-11T00:26:19.397Z,942.31
2022-12-11T00:26:29.405Z,942.31
2022-12-11T00:26:39.403Z,942.31
2022-12-11T00:26:49.400Z,942.31
2022-12-11T00:26:59.399Z,942.31
2022-12-11T00:27:09.398Z,942.31
2022-12-11T00:27:19.407Z,942.31
2022-12-11T00:27:29.403Z,942.31
2022-12-11T00:27:39.403Z,942.31
2022-12-11T00:27:49.402Z,942.31
2022-12-11T00:27:59.412Z,942.32
2022-12-11T00:28:09.407Z,942.32
2022-12-11T00:28:19.409Z,942.32
2022-12-11T00:28:29.404Z,942.32
2022-12-11T00:28:39.403Z,942.32
2022-12-11T00:28:49.435Z,942.32
2022-12-11T00:28:59.406Z,942.33
2022-12-11T00:29:09.417Z,942.33
2022-12-11T00:29:19.410Z,942.33
2022-12-11T00:29:29.409Z,942.33
2022-12-11T00:29:39.407Z,942.33
2022-12-11T00:29:49.410Z,942.33
2022-12-11T00:29:59.414Z,942.33
2022-12-11T00:30:09.425Z,942.33
2022-12-11T00:30:19.406Z,942.33
2022-12-11T00:30:29.416Z,942.33
2022-12-11T00:30:39.408Z,942.33
2022-12-11T00:30:49.416Z,942.33
2022-12-11T00:30:59.415Z,942.33
2022-12-11T00:31:09.400Z,942.32
2022-12-11T00:31:19.497Z,942.32
2022-12-11T00:31:29.546Z,942.32
2022-12-11T00:31:39.451Z,942.31
2022-12-11T00:31:49.447Z,942.31
2022-12-11T00:31:59.483Z,942.31
2022-12-11T00:32:09.486Z,942.31
2022-12-11T00:32:19.414Z,942.30
2022-12-11T00:32:32.575Z,942.30
2022-12-11T00:32:40.421Z,942.30
2022-12-11T00:32:49.418Z,942.29
2022-12-11T00:32:59.417Z,942.29
2022-12-11T00:33:09.424Z,942.30
2022-12-11T00:33:19.419Z,942.30
2022-12-11T00:33:29.421Z,942.30
2022-12-11T00:33:39.432Z,942.30
2022-12-11T00:33:49.422Z,942.29
2022-12-11T00:33:59.422Z,942.29
2022-12-11T00:34:09.421Z,942.30
2022-12-11T00:34:19.422Z,942.30
2022-12-11T00:34:29.426Z,942.30
2022-12-11T00:34:39.424Z,942.30
2022-12-11T00:34:49.428Z,942.30
2022-12-11T00:34:59.428Z,942.31
2022-12-11T00:35:09.844Z,942.31
2022-12-11T00:35:19.423Z,942.31
2022-12-11T00:35:29.438Z,942.32
2022-12-11T00:35:39.426Z,942.32
2022-12-11T00:35:49.427Z,942.32
2022-12-11T00:35:59.434Z,942.32
2022-12-11T00:36:09.427Z,942.32
2022-12-11T00:36:19.431Z,942.32
2022-12-11T00:36:29.437Z,942.32
2022-12-11T00:36:39.443Z,942.33
2022-12-11T00:36:49.434Z,942.33
2022-12-11T00:36:59.507Z,942.33
2022-12-11T00:37:09.492Z,942.33
2022-12-11T00:37:19.484Z,942.33
2022-12-11T00:37:29.481Z,942.32
2022-12-11T00:37:39.521Z,942.32
2022-12-11T00:37:49.444Z,942.32
2022-12-11T00:37:59.446Z,942.32
2022-12-11T00:38:09.440Z,942.31
2022-12-11T00:38:19.443Z,942.32
2022-12-11T00:38:29.440Z,942.31
2022-12-11T00:38:39.443Z,942.31
2022-12-11T00:38:49.440Z,942.31
2022-12-11T00:38:59.437Z,942.30
2022-12-11T00:39:09.445Z,942.30
2022-12-11T00:39:19.454Z,942.29
2022-12-11T00:39:29.458Z,942.29
2022-12-11T00:39:39.446Z,942.29
2022-12-11T00:39:49.445Z,942.29
2022-12-11T00:39:59.456Z,942.29
2022-12-11T00:40:09.447Z,942.29
2022-12-11T00:40:19.447Z,942.29
2022-12-11T00:40:29.452Z,942.29
2022-12-11T00:40:39.452Z,942.29
2022-12-11T00:40:49.452Z,942.29
2022-12-11T00:40:59.462Z,942.29
2022-12-11T00:41:09.451Z,942.29
2022-12-11T00:41:19.451Z,942.29
2022-12-11T00:41:29.456Z,942.28
2022-12-11T00:41:39.465Z,942.28
2022-12-11T00:41:49.455Z,942.29
2022-12-11T00:41:59.455Z,942.29
2022-12-11T00:42:09.467Z,942.29
2022-12-11T00:42:19.455Z,942.29
2022-12-11T00:42:29.457Z,942.29
2022-12-11T00:42:39.458Z,942.29
2022-12-11T00:42:49.458Z,942.29
2022-12-11T00:42:59.459Z,942.30
2022-12-11T00:43:09.464Z,942.30
2022-12-11T00:43:19.461Z,942.30
2022-12-11T00:43:29.457Z,942.30
2022-12-11T00:43:39.447Z,942.30
2022-12-11T00:43:49.460Z,942.30
2022-12-11T00:43:59.464Z,942.29
2022-12-11T00:44:09.462Z,942.30
2022-12-11T00:44:19.466Z,942.29
2022-12-11T00:44:29.462Z,942.29
2022-12-11T00:44:39.465Z,942.29
2022-12-11T00:44:49.465Z,942.29
2022-12-11T00:44:59.469Z,942.30
2022-12-11T00:45:09.754Z,942.29
2022-12-11T00:45:19.463Z,942.29
2022-12-11T00:45:29.579Z,942.29
2022-12-11T00:45:39.516Z,942.28
2022-12-11T00:45:49.492Z,942.28
2022-12-11T00:45:59.510Z,942.28
2022-12-11T00:46:09.534Z,942.28
2022-12-11T00:46:19.504Z,942.27
2022-12-11T00:46:29.469Z,942.28
2022-12-11T00:46:39.487Z,942.28
2022-12-11T00:46:49.478Z,942.28
2022-12-11T00:46:59.473Z,942.28
2022-12-11T00:47:09.458Z,942.28
2022-12-11T00:47:19.474Z,942.29
2022-12-11T00:47:29.479Z,942.29
2022-12-11T00:47:39.472Z,942.29
2022-12-11T00:47:49.479Z,942.29
2022-12-11T00:47:59.475Z,942.29
2022-12-11T00:48:09.476Z,942.29
2022-12-11T00:48:19.486Z,942.30
2022-12-11T00:48:29.476Z,942.30
2022-12-11T00:48:39.489Z,942.30
2022-12-11T00:48:49.477Z,942.30
2022-12-11T00:48:59.477Z,942.30
2022-12-11T00:49:09.482Z,942.31
2022-12-11T00:49:19.488Z,942.31
2022-12-11T00:49:29.478Z,942.30
2022-12-11T00:49:39.480Z,942.31
2022-12-11T00:49:50.114Z,942.31
2022-12-11T00:49:59.479Z,942.31
2022-12-11T00:50:09.485Z,942.31
2022-12-11T00:50:19.494Z,942.31
2022-12-11T00:50:29.485Z,942.32
2022-12-11T00:50:39.485Z,942.31
2022-12-11T00:50:49.471Z,942.31
2022-12-11T00:50:59.475Z,942.31
2022-12-11T00:51:09.486Z,942.31
2022-12-11T00:51:19.498Z,942.31
2022-12-11T00:51:29.488Z,942.30
2022-12-11T00:51:39.507Z,942.30
2022-12-11T00:51:49.488Z,942.30
2022-12-11T00:51:59.490Z,942.30
2022-12-11T00:52:09.492Z,942.30
2022-12-11T00:52:19.496Z,942.30
2022-12-11T00:52:29.498Z,942.30
2022-12-11T00:52:39.493Z,942.30
2022-12-11T00:52:49.516Z,942.30
2022-12-11T00:52:59.494Z,942.30
2022-12-11T00:53:09.499Z,942.30
2022-12-11T00:53:19.503Z,942.30
2022-12-11T00:53:29.509Z,942.30
2022-12-11T00:53:39.512Z,942.30
2022-12-11T00:53:49.489Z,942.30
2022-12-11T00:53:59.504Z,942.30
2022-12-11T00:54:09.508Z,942.30
2022-12-11T00:54:19.505Z,942.30
2022-12-11T00:54:29.510Z,942.30
2022-12-11T00:54:39.507Z,942.30
2022-12-11T00:54:49.519Z,942.30
2022-12-11T00:54:59.506Z,942.31
2022-12-11T00:55:09.835Z,942.30
2022-12-11T00:55:19.503Z,942.31
2022-12-11T00:55:29.503Z,942.31
2022-12-11T00:55:39.505Z,942.31
2022-12-11T00:55:49.509Z,942.31
2022-12-11T00:55:59.506Z,942.32
2022-12-11T00:56:09.521Z,942.32
2022-12-11T00:56:19.512Z,942.32
2022-12-11T00:56:29.509Z,942.32
2022-12-11T00:56:39.525Z,942.32
2022-12-11T00:56:49.510Z,942.33
2022-12-11T00:56:59.512Z,942.33
2022-12-11T00:57:09.519Z,942.34
2022-12-11T00:57:19.518Z,942.35
2022-12-11T00:57:29.516Z,942.35
2022-12-11T00:57:39.523Z,942.36
2022-12-11T00:57:49.518Z,942.36
2022-12-11T00:57:59.526Z,942.37
2022-12-11T00:58:09.521Z,942.36
2022-12-11T00:58:19.519Z,942.37
2022-12-11T00:58:29.528Z,942.37
2022-12-11T00:58:39.524Z,942.37
2022-12-11T00:58:49.524Z,942.37
2022-12-11T00:58:59.514Z,942.37
2022-12-11T00:59:09.535Z,942.38
2022-12-11T00:59:19.526Z,942.38
2022-12-11T00:59:29.526Z,942.37
2022-12-11T00:59:39.527Z,942.38
2022-12-11T00:59:49.526Z,942.38
2022-12-11T00:59:59.526Z,942.38
2022-12-11T01:00:09.536Z,942.38
2022-12-11T01:00:19.537Z,942.38
2022-12-11T01:00:29.532Z,942.38
2022-12-11T01:00:39.542Z,942.38
2022-12-11T01:00:49.548Z,942.38
2022-12-11T01:00:59.555Z,942.37
2022-12-11T01:01:09.562Z,942.38
2022-12-11T01:01:19.617Z,942.38
2022-12-11T01:01:29.571Z,942.38
2022-12-11T01:01:39.607Z,942.38
2022-12-11T01:01:49.579Z,942.38
2022-12-11T01:01:59.542Z,942.38
2022-12-11T01:02:09.549Z,942.38
2022-12-11T01:02:19.541Z,942.38
2022-12-11T01:02:29.594Z,942.38
2022-12-11T01:02:39.577Z,942.38
2022-12-11T01:02:49.604Z,942.38
2022-12-11T01:02:59.626Z,942.38
2022-12-11T01:03:09.584Z,942.38
2022-12-11T01:03:19.531Z,942.38
2022-12-11T01:03:29.533Z,942.38
2022-12-11T01:03:39.546Z,942.38
2022-12-11T01:03:49.546Z,942.38
2022-12-11T01:03:59.539Z,942.38
2022-12-11T01:04:09.537Z,942.38
2022-12-11T01:04:19.552Z,942.38
2022-12-11T01:04:29.545Z,942.38
2022-12-11T01:04:39.539Z,942.38
2022-12-11T01:04:49.538Z,942.38
2022-12-11T01:04:59.542Z,942.38
2022-12-11T01:05:09.767Z,942.38
2022-12-11T01:05:19.552Z,942.38
2022-12-11T01:05:29.560Z,942.39
2022-12-11T01:05:39.553Z,942.38
2022-12-11T01:05:49.553Z,942.39
2022-12-11T01:05:59.558Z,942.39
2022-12-11T01:06:09.554Z,942.39
2022-12-11T01:06:19.556Z,942.39
2022-12-11T01:06:29.556Z,942.39
2022-12-11T01:06:39.608Z,942.40
2022-12-11T01:06:49.563Z,942.40
2022-12-11T01:06:59.557Z,942.40
2022-12-11T01:07:09.565Z,942.40
2022-12-11T01:07:19.564Z,942.41
2022-12-11T01:07:29.560Z,942.41
2022-12-11T01:07:39.568Z,942.41
2022-12-11T01:07:49.600Z,942.41
2022-12-11T01:07:59.651Z,942.42
2022-12-11T01:08:09.588Z,942.42
2022-12-11T01:08:19.619Z,942.42
2022-12-11T01:08:32.711Z,942.43
2022-12-11T01:08:40.586Z,942.43
2022-12-11T01:08:49.573Z,942.44
2022-12-11T01:08:59.566Z,942.44
2022-12-11T01:09:09.568Z,942.44
2022-12-11T01:09:19.571Z,942.44
2022-12-11T01:09:29.573Z,942.44
2022-12-11T01:09:39.574Z,942.45
2022-12-11T01:09:49.570Z,942.45
2022-12-11T01:09:59.578Z,942.46
2022-12-11T01:10:09.614Z,942.46
2022-12-11T01:10:19.594Z,942.46
2022-12-11T01:10:29.637Z,942.47
2022-12-11T01:10:39.692Z,942.47
2022-12-11T01:10:49.658Z,942.47
2022-12-11T01:10:59.579Z,942.48
2022-12-11T01:11:09.575Z,942.48
2022-12-11T01:11:19.572Z,942.48
2022-12-11T01:11:29.574Z,942.48
2022-12-11T01:11:39.608Z,942.48
2022-12-11T01:11:49.589Z,942.49
2022-12-11T01:11:59.580Z,942.49
2022-12-11T01:12:09.577Z,942.49
2022-12-11T01:12:19.577Z,942.49
2022-12-11T01:12:29.577Z,942.50
2022-12-11T01:12:39.581Z,942.50
2022-12-11T01:12:49.580Z,942.49
2022-12-11T01:12:59.581Z,942.50
2022-12-11T01:13:09.584Z,942.50
2022-12-11T01:13:19.591Z,942.50
2022-12-11T01:13:29.582Z,942.50
2022-12-11T01:13:39.598Z,942.50
2022-12-11T01:13:49.587Z,942.50
2022-12-11T01:13:59.588Z,942.50
2022-12-11T01:14:09.585Z,942.50
2022-12-11T01:14:19.587Z,942.51
2022-12-11T01:14:29.587Z,942.51
2022-12-11T01:14:39.585Z,942.51
2022-12-11T01:14:49.585Z,942.51
2022-12-11T01:14:59.588Z,942.52
2022-12-11T01:15:09.808Z,942.52
2022-12-11T01:15:19.602Z,942.52
2022-12-11T01:15:29.587Z,942.52
2022-12-11T01:15:41.531Z,942.52
2022-12-11T01:15:49.590Z,942.53
2022-12-11T01:15:59.592Z,942.53
2022-12-11T01:16:09.596Z,942.53
2022-12-11T01:16:19.617Z,942.53
2022-12-11T01:16:29.659Z,942.53
2022-12-11T01:16:39.631Z,942.53
2022-12-11T01:16:49.685Z,942.54
2022-12-11T01:16:59.623Z,942.54
2022-12-11T01:17:09.594Z,942.54
2022-12-11T01:17:19.602Z,942.54
2022-12-11T01:17:29.605Z,942.53
2022-12-11T01:17:39.599Z,942.53
2022-12-11T01:17:49.605Z,942.53
2022-12-11T01:17:59.596Z,942.52
2022-12-11T01:18:09.598Z,942.52
2022-12-11T01:18:19.598Z,942.52
2022-12-11T01:18:29.601Z,942.52
2022-12-11T01:18:39.599Z,942.52
2022-12-11T01:18:49.614Z,942.52
2022-12-11T01:18:59.593Z,942.52
2022-12-11T01:19:09.596Z,942.52
2022-12-11T01:19:19.605Z,942.52
2022-12-11T01:19:29.608Z,942.51
2022-12-11T01:19:39.606Z,942.51
2022-12-11T01:19:49.611Z,942.51
2022-12-11T01:19:59.613Z,942.51
2022-12-11T01:20:09.609Z,942.51
2022-12-11T01:20:19.613Z,942.51
2022-12-11T01:20:29.615Z,942.51
2022-12-11T01:20:39.613Z,942.51
2022-12-11T01:20:49.620Z,942.51
2022-12-11T01:20:59.613Z,942.51
2022-12-11T01:21:09.617Z,942.51
2022-12-11T01:21:19.629Z,942.51
2022-12-11T01:21:29.618Z,942.51
2022-12-11T01:21:39.631Z,942.52
2022-12-11T01:21:49.617Z,942.51
2022-12-11T01:21:59.626Z,942.51
2022-12-11T01:22:09.603Z,942.52
2022-12-11T01:22:19.603Z,942.51
2022-12-11T01:22:29.626Z,942.51
2022-12-11T01:22:39.627Z,942.52
2022-12-11T01:22:49.625Z,942.52
2022-12-11T01:22:59.651Z,942.52
2022-12-11T01:23:09.619Z,942.52
2022-12-11T01:23:19.611Z,942.52
2022-12-11T01:23:29.624Z,942.52
2022-12-11T01:23:39.608Z,942.52
2022-12-11T01:23:49.621Z,942.52
2022-12-11T01:23:59.633Z,942.52
2022-12-11T01:24:09.622Z,942.52
2022-12-11T01:24:19.622Z,942.52
2022-12-11T01:24:29.627Z,942.53
2022-12-11T01:24:39.622Z,942.52
2022-12-11T01:24:49.634Z,942.53
2022-12-11T01:24:59.623Z,942.53
2022-12-11T01:25:09.846Z,942.53
2022-12-11T01:25:19.627Z,942.53
2022-12-11T01:25:29.628Z,942.54
2022-12-11T01:25:39.624Z,942.54
2022-12-11T01:25:49.628Z,942.54
2022-12-11T01:25:59.636Z,942.54
2022-12-11T01:26:09.632Z,942.54
2022-12-11T01:26:19.626Z,942.55
2022-12-11T01:26:29.632Z,942.55
2022-12-11T01:26:39.628Z,942.55
2022-12-11T01:26:49.634Z,942.56
2022-12-11T01:26:59.633Z,942.56
2022-12-11T01:27:09.639Z,942.55
2022-12-11T01:27:19.630Z,942.55
2022-12-11T01:27:29.630Z,942.55
2022-12-11T01:27:39.630Z,942.56
2022-12-11T01:27:49.633Z,942.56
2022-12-11T01:27:59.635Z,942.56
2022-12-11T01:28:09.638Z,942.56
2022-12-11T01:28:19.635Z,942.56
2022-12-11T01:28:29.634Z,942.56
2022-12-11T01:28:39.634Z,942.56
2022-12-11T01:28:49.638Z,942.56
2022-12-11T01:28:59.640Z,942.56
2022-12-11T01:29:09.646Z,942.56
2022-12-11T01:29:19.640Z,942.56
2022-12-11T01:29:29.640Z,942.56
2022-12-11T01:29:39.640Z,942.56
2022-12-11T01:29:49.629Z,942.56
2022-12-11T01:29:59.630Z,942.56
2022-12-11T01:30:09.648Z,942.56
2022-12-11T01:30:19.675Z,942.55
2022-12-11T01:30:29.690Z,942.55
2022-12-11T01:30:39.706Z,942.55
2022-12-11T01:30:49.722Z,942.55
2022-12-11T01:30:59.670Z,942.55
2022-12-11T01:31:09.710Z,942.55
2022-12-11T01:31:19.703Z,942.54
2022-12-11T01:31:29.647Z,942.54
2022-12-11T01:31:39.647Z,942.54
2022-12-11T01:31:49.668Z,942.54
2022-12-11T01:31:59.650Z,942.54
2022-12-11T01:32:09.662Z,942.54
2022-12-11T01:32:19.660Z,942.54
2022-12-11T01:32:29.651Z,942.54
2022-12-11T01:32:39.650Z,942.54
2022-12-11T01:32:49.654Z,942.54
2022-12-11T01:32:59.654Z,942.54
2022-12-11T01:33:09.655Z,942.53
2022-12-11T01:33:19.661Z,942.53
2022-12-11T01:33:29.663Z,942.53
2022-12-11T01:33:39.657Z,942.54
2022-12-11T01:33:49.659Z,942.54
2022-12-11T01:33:59.659Z,942.53
2022-12-11T01:34:09.660Z,942.53
2022-12-11T01:34:19.677Z,942.53
2022-12-11T01:34:29.661Z,942.52
2022-12-11T01:34:39.664Z,942.53
2022-12-11T01:34:49.662Z,942.52
2022-12-11T01:34:59.662Z,942.52
2022-12-11T01:35:09.953Z,942.53
2022-12-11T01:35:19.672Z,942.53
2022-12-11T01:35:29.661Z,942.53
2022-12-11T01:35:39.665Z,942.53
2022-12-11T01:35:49.668Z,942.53
2022-12-11T01:35:59.666Z,942.53
2022-12-11T01:36:09.659Z,942.53
2022-12-11T01:36:19.671Z,942.53
2022-12-11T01:36:29.673Z,942.53
2022-12-11T01:36:39.676Z,942.53
2022-12-11T01:36:49.672Z,942.53
2022-12-11T01:36:59.673Z,942.53
2022-12-11T01:37:09.670Z,942.53
2022-12-11T01:37:19.670Z,942.53
2022-12-11T01:37:29.684Z,942.53
2022-12-11T01:37:39.674Z,942.52
2022-12-11T01:37:49.674Z,942.52
2022-12-11T01:37:59.674Z,942.52
2022-12-11T01:38:09.677Z,942.51
2022-12-11T01:38:19.674Z,942.52
2022-12-11T01:38:29.679Z,942.52
2022-12-11T01:38:39.679Z,942.52
2022-12-11T01:38:49.678Z,942.52
2022-12-11T01:38:59.679Z,942.53
2022-12-11T01:39:09.681Z,942.53
2022-12-11T01:39:19.681Z,942.53
2022-12-11T01:39:29.677Z,942.52
2022-12-11T01:39:39.669Z,942.52
2022-12-11T01:39:49.671Z,942.52
2022-12-11T01:39:59.683Z,942.52
2022-12-11T01:40:09.684Z,942.52
2022-12-11T01:40:19.684Z,942.51
2022-12-11T01:40:29.687Z,942.52
2022-12-11T01:40:39.690Z,942.52
2022-12-11T01:40:49.693Z,942.51
2022-12-11T01:41:05.377Z,942.51
2022-12-11T01:41:15.870Z,942.51
2022-12-11T01:41:20.687Z,942.50
2022-12-11T01:41:29.688Z,942.50
2022-12-11T01:41:39.688Z,942.50
2022-12-11T01:41:49.722Z,942.50
2022-12-11T01:41:59.701Z,942.50
2022-12-11T01:42:09.692Z,942.50
2022-12-11T01:42:19.697Z,942.51
2022-12-11T01:42:29.693Z,942.50
2022-12-11T01:42:39.696Z,942.50
2022-12-11T01:42:49.696Z,942.50
2022-12-11T01:42:59.692Z,942.50
2022-12-11T01:43:09.695Z,942.50
2022-12-11T01:43:19.695Z,942.50
2022-12-11T01:43:29.697Z,942.50
2022-12-11T01:43:39.693Z,942.49
2022-12-11T01:43:49.702Z,942.50
2022-12-11T01:43:59.704Z,942.50
2022-12-11T01:44:09.703Z,942.49
2022-12-11T01:44:19.701Z,942.49
2022-12-11T01:44:29.702Z,942.49
2022-12-11T01:44:39.702Z,942.49
2022-12-11T01:44:49.703Z,942.49
2022-12-11T01:44:59.701Z,942.49
2022-12-11T01:45:09.864Z,942.49
2022-12-11T01:45:19.700Z,942.49
2022-12-11T01:45:29.710Z,942.49
2022-12-11T01:45:39.782Z,942.49
2022-12-11T01:45:49.779Z,942.49
2022-12-11T01:45:59.734Z,942.50
2022-12-11T01:46:09.770Z,942.50
2022-12-11T01:46:19.734Z,942.50
2022-12-11T01:46:29.765Z,942.50
2022-12-11T01:46:39.717Z,942.50
2022-12-11T01:46:49.702Z,942.50
2022-12-11T01:46:59.711Z,942.50
2022-12-11T01:47:09.714Z,942.50
2022-12-11T01:47:19.708Z,942.51
2022-12-11T01:47:29.708Z,942.50
2022-12-11T01:47:39.709Z,942.51
2022-12-11T01:47:49.712Z,942.51
2022-12-11T01:47:59.714Z,942.51
2022-12-11T01:48:09.719Z,942.51
2022-12-11T01:48:19.722Z,942.51
2022-12-11T01:48:29.701Z,942.51
2022-12-11T01:48:42.356Z,942.51
2022-12-11T01:48:49.714Z,942.51
2022-12-11T01:48:59.724Z,942.51
2022-12-11T01:49:09.724Z,942.51
2022-12-11T01:49:19.717Z,942.50
2022-12-11T01:49:29.717Z,942.51
2022-12-11T01:49:39.721Z,942.51
2022-12-11T01:49:49.707Z,942.51
2022-12-11T01:49:59.721Z,942.51
2022-12-11T01:50:09.727Z,942.51
2022-12-11T01:50:19.722Z,942.50
2022-12-11T01:50:29.719Z,942.51
2022-12-11T01:50:39.721Z,942.51
2022-12-11T01:50:49.722Z,942.51
2022-12-11T01:50:59.713Z,942.51
2022-12-11T01:51:09.725Z,942.50
2022-12-11T01:51:19.734Z,942.50
2022-12-11T01:51:29.721Z,942.50
2022-12-11T01:51:39.726Z,942.50
2022-12-11T01:51:49.714Z,942.50
2022-12-11T01:51:59.731Z,942.50
2022-12-11T01:52:09.728Z,942.50
2022-12-11T01:52:19.731Z,942.51
2022-12-11T01:52:29.735Z,942.51
2022-12-11T01:52:39.732Z,942.51
2022-12-11T01:52:49.733Z,942.51
2022-12-11T01:52:59.727Z,942.51
2022-12-11T01:53:09.734Z,942.51
2022-12-11T01:53:19.736Z,942.51
2022-12-11T01:53:29.744Z,942.51
2022-12-11T01:53:39.733Z,942.52
2022-12-11T01:53:49.736Z,942.52
2022-12-11T01:53:59.737Z,942.52
2022-12-11T01:54:09.738Z,942.53
2022-12-11T01:54:19.739Z,942.53
2022-12-11T01:54:29.738Z,942.53
2022-12-11T01:54:39.738Z,942.53
2022-12-11T01:54:49.742Z,942.54
2022-12-11T01:54:59.740Z,942.54
2022-12-11T01:55:10.151Z,942.54
2022-12-11T01:55:19.740Z,942.54
2022-12-11T01:55:29.741Z,942.54
2022-12-11T01:55:39.743Z,942.55
2022-12-11T01:55:49.761Z,942.55
2022-12-11T01:55:59.743Z,942.55
2022-12-11T01:56:09.743Z,942.55
2022-12-11T01:56:19.732Z,942.55
2022-12-11T01:56:29.746Z,942.55
2022-12-11T01:56:39.753Z,942.55
2022-12-11T01:56:49.781Z,942.55
2022-12-11T01:56:59.771Z,942.55
2022-12-11T01:57:09.748Z,942.55
2022-12-11T01:57:19.738Z,942.55
2022-12-11T01:57:29.754Z,942.55
2022-12-11T01:57:39.752Z,942.55
2022-12-11T01:57:49.752Z,942.56
2022-12-11T01:57:59.755Z,942.56
2022-12-11T01:58:09.753Z,942.56
2022-12-11T01:58:19.760Z,942.56
2022-12-11T01:58:29.754Z,942.56
2022-12-11T01:58:39.762Z,942.56
2022-12-11T01:58:49.762Z,942.57
2022-12-11T01:58:59.767Z,942.57
2022-12-11T01:59:09.798Z,942.57
2022-12-11T01:59:19.757Z,942.57
2022-12-11T01:59:29.761Z,942.57
2022-12-11T01:59:39.760Z,942.57
2022-12-11T01:59:49.768Z,942.57
2022-12-11T01:59:59.765Z,942.57
2022-12-11T02:00:09.760Z,942.57
2022-12-11T02:00:19.762Z,942.58
2022-12-11T02:00:29.763Z,942.58
2022-12-11T02:00:39.764Z,942.58
2022-12-11T02:00:49.819Z,942.58
2022-12-11T02:00:59.810Z,942.58
2022-12-11T02:01:09.785Z,942.58
2022-12-11T02:01:19.816Z,942.58
2022-12-11T02:01:29.805Z,942.58
2022-12-11T02:01:39.838Z,942.58
2022-12-11T02:01:49.773Z,942.59
2022-12-11T02:01:59.787Z,942.59
2022-12-11T02:02:09.785Z,942.59
2022-12-11T02:02:19.800Z,942.60
2022-12-11T02:02:29.872Z,942.60
2022-12-11T02:02:39.824Z,942.60
2022-12-11T02:02:49.827Z,942.60
2022-12-11T02:02:59.778Z,942.60
2022-12-11T02:03:09.779Z,942.60
2022-12-11T02:03:19.777Z,942.60
2022-12-11T02:03:29.783Z,942.61
2022-12-11T02:03:39.779Z,942.60
2022-12-11T02:03:49.785Z,942.60
2022-12-11T02:03:59.785Z,942.60
2022-12-11T02:04:09.783Z,942.61
2022-12-11T02:04:19.792Z,942.60
2022-12-11T02:04:29.786Z,942.60
2022-12-11T02:04:40.790Z,942.60
2022-12-11T02:04:49.785Z,942.60